sensor_id;sensor_type;location;lat;lon;timestamp;pressure;altitude;pressure_sealevel;temperature;humidity
26859;BME280;14429;48.346;16.338;2023-01-25T00:01:16;101481.31;;;11.47;52.11
26859;BME280;14429;48.346;16.338;2023-01-25T00:03:42;101479.31;;;11.52;51.75
26859;BME280;14429;48.346;16.338;2023-01-25T00:06:07;101475.56;;;11.56;51.41
26859;BME280;14429;48.346;16.338;2023-01-25T00:08:33;101476.19;;;11.62;51.15
26859;BME280;14429;48.346;16.338;2023-01-25T00:10:58;101470.97;;;11.59;50.85
26859;BME280;14429;48.346;16.338;2023-01-25T00:13:25;101479.56;;;11.46;50.60
26859;BME280;14429;48.346;16.338;2023-01-25T00:15:51;101484.53;;;11.55;50.93
26859;BME280;14429;48.346;16.338;2023-01-25T00:18:16;101489.47;;;11.44;51.46
26859;BME280;14429;48.346;16.338;2023-01-25T00:20:42;101491.84;;;11.50;51.88
26859;BME280;14429;48.346;16.338;2023-01-25T00:23:07;101495.06;;;11.38;52.38
26859;BME280;14429;48.346;16.338;2023-01-25T00:25:33;101499.88;;;11.50;nan
26859;BME280;14429;48.346;16.338;2023-01-25T00:27:58;101488.41;;;11.48;52.02
26859;BME280;14429;48.346;16.338;2023-01-25T00:30:25;101496.94;;;11.56;51.49
26859;BME280;14429;48.346;16.338;2023-01-25T00:32:53;101494.94;;;11.60;51.25
26859;BME280;14429;48.346;16.338;2023-01-25T00:35:22;101491.84;;;11.50;51.17
26859;BME280;14429;48.346;16.338;2023-01-25T00:37:47;101480.63;;;11.61;50.61
26859;BME280;14429;48.346;16.338;2023-01-25T00:40:16;101486.88;;;11.62;50.49
26859;BME280;14429;48.346;16.338;2023-01-25T00:42:42;101489.88;;;11.55;50.70
26859;BME280;14429;48.346;16.338;2023-01-25T00:45:09;101496.28;;;11.51;51.29
26859;BME280;14429;48.346;16.338;2023-01-25T00:47:37;101496.50;;;11.25;51.71
26859;BME280;14429;48.346;16.338;2023-01-25T00:50:02;101494.38;;;11.33;52.37
26859;BME280;14429;48.346;16.338;2023-01-25T00:52:28;101495.59;;;11.46;52.15
26859;BME280;14429;48.346;16.338;2023-01-25T00:54:54;101491.84;;;11.50;51.83
26859;BME280;14429;48.346;16.338;2023-01-25T00:57:19;101491.84;;;11.50;51.64
26859;BME280;14429;48.346;16.338;2023-01-25T00:59:45;101494.47;;;11.51;51.32
26859;BME280;14429;48.346;16.338;2023-01-25T01:02:10;101497.94;;;11.53;51.08
26859;BME280;14429;48.346;16.338;2023-01-25T01:04:37;101494.06;;;11.60;50.61
26859;BME280;14429;48.346;16.338;2023-01-25T01:07:03;101499.50;;;11.58;50.56
26859;BME280;14429;48.346;16.338;2023-01-25T01:09:28;101499.63;;;11.56;50.59
26859;BME280;14429;48.346;16.338;2023-01-25T01:11:54;101498.03;;;11.52;50.97
26859;BME280;14429;48.346;16.338;2023-01-25T01:14:21;101499.47;;;11.39;51.59
26859;BME280;14429;48.346;16.338;2023-01-25T01:16:47;101498.34;;;11.23;52.58
26859;BME280;14429;48.346;16.338;2023-01-25T01:19:12;101497.41;;;11.24;52.09
26859;BME280;14429;48.346;16.338;2023-01-25T01:21:39;101495.94;;;11.38;52.07
26859;BME280;14429;48.346;16.338;2023-01-25T01:24:05;101494.38;;;11.33;51.38
26859;BME280;14429;48.346;16.338;2023-01-25T01:26:30;101497.53;;;11.42;51.36
26859;BME280;14429;48.346;16.338;2023-01-25T01:28:57;101497.31;;;11.47;51.25
26859;BME280;14429;48.346;16.338;2023-01-25T01:31:23;101494.38;;;11.33;50.65
26859;BME280;14429;48.346;16.338;2023-01-25T01:33:49;101493.75;;;11.48;50.57
26859;BME280;14429;48.346;16.338;2023-01-25T01:36:16;101492.00;;;11.47;50.67
26859;BME280;14429;48.346;16.338;2023-01-25T01:38:44;101487.97;;;11.37;51.15
26859;BME280;14429;48.346;16.338;2023-01-25T01:41:10;101489.16;;;11.30;52.27
26859;BME280;14429;48.346;16.338;2023-01-25T01:43:36;101483.16;;;11.25;52.24
26859;BME280;14429;48.346;16.338;2023-01-25T01:46:03;101494.25;;;11.36;52.13
26859;BME280;14429;48.346;16.338;2023-01-25T01:48:33;101494.50;;;11.30;52.07
26859;BME280;14429;48.346;16.338;2023-01-25T01:51:02;101489.03;;;11.33;51.90
26859;BME280;14429;48.346;16.338;2023-01-25T01:53:31;101492.50;;;11.35;51.64
26859;BME280;14429;48.346;16.338;2023-01-25T01:56:01;101493.41;;;11.14;49.65
26859;BME280;14429;48.346;16.338;2023-01-25T01:58:29;101491.97;;;11.27;51.36
26859;BME280;14429;48.346;16.338;2023-01-25T02:00:55;101496.94;;;10.95;50.93
26859;BME280;14429;48.346;16.338;2023-01-25T02:03:21;101500.91;;;10.85;51.60
26859;BME280;14429;48.346;16.338;2023-01-25T02:05:55;101495.78;;;11.01;51.80
26859;BME280;14429;48.346;16.338;2023-01-25T02:08:22;101506.00;;;10.70;52.46
26859;BME280;14429;48.346;16.338;2023-01-25T02:10:49;101497.69;;;10.34;52.48
26859;BME280;14429;48.346;16.338;2023-01-25T02:13:16;101507.91;;;10.00;53.93
26859;BME280;14429;48.346;16.338;2023-01-25T02:15:44;101506.66;;;10.10;55.10
26859;BME280;14429;48.346;16.338;2023-01-25T02:18:11;101509.56;;;10.48;53.77
26859;BME280;14429;48.346;16.338;2023-01-25T02:20:38;101499.91;;;10.67;53.17
26859;BME280;14429;48.346;16.338;2023-01-25T02:23:11;101496.03;;;10.95;52.47
26859;BME280;14429;48.346;16.338;2023-01-25T02:25:41;101492.81;;;10.87;51.99
26859;BME280;14429;48.346;16.338;2023-01-25T02:28:11;101487.00;;;10.99;51.75
26859;BME280;14429;48.346;16.338;2023-01-25T02:30:38;101480.69;;;10.80;49.93
26859;BME280;14429;48.346;16.338;2023-01-25T02:33:04;101489.25;;;10.88;52.19
26859;BME280;14429;48.346;16.338;2023-01-25T02:35:39;101496.31;;;10.68;52.60
26859;BME280;14429;48.346;16.338;2023-01-25T02:38:06;101484.38;;;10.76;53.33
26859;BME280;14429;48.346;16.338;2023-01-25T02:40:35;101485.38;;;10.52;52.43
26859;BME280;14429;48.346;16.338;2023-01-25T02:43:06;101484.03;;;10.85;52.98
26859;BME280;14429;48.346;16.338;2023-01-25T02:45:31;101490.97;;;10.89;52.64
26859;BME280;14429;48.346;16.338;2023-01-25T02:47:57;101484.16;;;10.40;49.86
26859;BME280;14429;48.346;16.338;2023-01-25T02:50:22;101485.41;;;10.74;52.12
26859;BME280;14429;48.346;16.338;2023-01-25T02:52:48;101471.22;;;10.93;52.07
26859;BME280;14429;48.346;16.338;2023-01-25T02:55:13;101462.91;;;11.00;51.38
26859;BME280;14429;48.346;16.338;2023-01-25T02:57:39;101475.03;;;10.66;51.08
26859;BME280;14429;48.346;16.338;2023-01-25T03:00:07;101471.81;;;10.58;51.93
26859;BME280;14429;48.346;16.338;2023-01-25T03:02:33;101462.41;;;10.91;52.34
26859;BME280;14429;48.346;16.338;2023-01-25T03:04:58;101464.53;;;10.41;53.09
26859;BME280;14429;48.346;16.338;2023-01-25T03:07:24;101465.47;;;10.82;53.29
26859;BME280;14429;48.346;16.338;2023-01-25T03:09:49;101456.81;;;10.97;52.75
26859;BME280;14429;48.346;16.338;2023-01-25T03:12:14;101448.56;;;10.62;50.95
26859;BME280;14429;48.346;16.338;2023-01-25T03:14:40;101448.03;;;10.52;51.75
26859;BME280;14429;48.346;16.338;2023-01-25T03:17:07;101449.41;;;10.62;52.37
26859;BME280;14429;48.346;16.338;2023-01-25T03:19:32;101439.41;;;10.67;52.32
26859;BME280;14429;48.346;16.338;2023-01-25T03:21:57;101441.81;;;10.31;52.37
26859;BME280;14429;48.346;16.338;2023-01-25T03:24:23;101451.81;;;10.26;52.43
26859;BME280;14429;48.346;16.338;2023-01-25T03:26:48;101446.47;;;10.26;53.63
26859;BME280;14429;48.346;16.338;2023-01-25T03:29:14;101439.28;;;10.49;53.53
26859;BME280;14429;48.346;16.338;2023-01-25T03:31:39;101433.69;;;10.35;53.84
26859;BME280;14429;48.346;16.338;2023-01-25T03:34:06;101434.75;;;10.72;53.69
26859;BME280;14429;48.346;16.338;2023-01-25T03:36:31;101421.84;;;10.83;53.18
26859;BME280;14429;48.346;16.338;2023-01-25T03:38:57;101425.97;;;10.70;52.80
26859;BME280;14429;48.346;16.338;2023-01-25T03:41:22;101424.59;;;10.60;51.16
26859;BME280;14429;48.346;16.338;2023-01-25T03:43:48;101417.97;;;10.90;52.18
26859;BME280;14429;48.346;16.338;2023-01-25T03:46:13;101410.31;;;11.02;51.70
26859;BME280;14429;48.346;16.338;2023-01-25T03:48:38;101413.88;;;11.03;51.38
26859;BME280;14429;48.346;16.338;2023-01-25T03:51:05;101412.31;;;10.56;50.79
26859;BME280;14429;48.346;16.338;2023-01-25T03:53:31;101411.09;;;10.44;51.75
26859;BME280;14429;48.346;16.338;2023-01-25T03:55:58;101409.59;;;10.37;53.23
26859;BME280;14429;48.346;16.338;2023-01-25T03:58:24;101424.72;;;10.15;53.19
26859;BME280;14429;48.346;16.338;2023-01-25T04:00:49;101410.28;;;10.42;52.26
26859;BME280;14429;48.346;16.338;2023-01-25T04:03:15;101420.03;;;10.43;53.86
26859;BME280;14429;48.346;16.338;2023-01-25T04:05:41;101417.38;;;9.54;52.85
26859;BME280;14429;48.346;16.338;2023-01-25T04:08:08;101413.44;;;9.86;54.79
26859;BME280;14429;48.346;16.338;2023-01-25T04:10:33;101412.69;;;10.05;54.53
26859;BME280;14429;48.346;16.338;2023-01-25T04:12:58;101408.25;;;9.37;53.51
26859;BME280;14429;48.346;16.338;2023-01-25T04:15:24;101408.06;;;10.10;54.70
26859;BME280;14429;48.346;16.338;2023-01-25T04:17:49;101403.06;;;10.01;54.77
26859;BME280;14429;48.346;16.338;2023-01-25T04:20:15;101398.72;;;10.43;53.38
26859;BME280;14429;48.346;16.338;2023-01-25T04:22:40;101401.91;;;10.08;51.82
26859;BME280;14429;48.346;16.338;2023-01-25T04:25:08;101402.16;;;9.57;53.21
26859;BME280;14429;48.346;16.338;2023-01-25T04:27:33;101397.63;;;9.59;53.89
26859;BME280;14429;48.346;16.338;2023-01-25T04:29:59;101405.19;;;9.47;53.83
26859;BME280;14429;48.346;16.338;2023-01-25T04:32:24;101393.59;;;9.25;57.28
26859;BME280;14429;48.346;16.338;2023-01-25T04:34:50;101397.44;;;9.64;55.92
26859;BME280;14429;48.346;16.338;2023-01-25T04:37:15;101393.19;;;9.13;55.81
26859;BME280;14429;48.346;16.338;2023-01-25T04:39:40;101390.00;;;9.50;54.04
26859;BME280;14429;48.346;16.338;2023-01-25T04:42:07;101381.63;;;10.04;55.03
26859;BME280;14429;48.346;16.338;2023-01-25T04:44:33;101387.06;;;10.01;54.00
26859;BME280;14429;48.346;16.338;2023-01-25T04:46:58;101379.91;;;10.24;53.55
26859;BME280;14429;48.346;16.338;2023-01-25T04:49:24;101366.56;;;10.46;52.87
26859;BME280;14429;48.346;16.338;2023-01-25T04:51:49;101378.09;;;10.46;52.41
26859;BME280;14429;48.346;16.338;2023-01-25T04:54:14;101379.97;;;10.23;53.29
26859;BME280;14429;48.346;16.338;2023-01-25T04:56:40;101368.44;;;10.44;53.48
26859;BME280;14429;48.346;16.338;2023-01-25T04:59:07;101375.50;;;10.23;53.79
26859;BME280;14429;48.346;16.338;2023-01-25T05:01:32;101374.75;;;10.41;53.51
26859;BME280;14429;48.346;16.338;2023-01-25T05:03:57;101371.47;;;10.35;53.94
26859;BME280;14429;48.346;16.338;2023-01-25T05:06:23;101379.16;;;10.00;53.96
26859;BME280;14429;48.346;16.338;2023-01-25T05:08:48;101381.81;;;9.77;54.25
26859;BME280;14429;48.346;16.338;2023-01-25T05:11:14;101374.44;;;10.27;54.53
26859;BME280;14429;48.346;16.338;2023-01-25T05:13:39;101388.28;;;10.37;53.79
26859;BME280;14429;48.346;16.338;2023-01-25T05:16:06;101387.97;;;10.44;53.23
26859;BME280;14429;48.346;16.338;2023-01-25T05:18:32;101394.81;;;10.49;51.83
26859;BME280;14429;48.346;16.338;2023-01-25T05:20:57;101385.41;;;10.41;52.83
26859;BME280;14429;48.346;16.338;2023-01-25T05:23:23;101381.25;;;10.34;51.57
26859;BME280;14429;48.346;16.338;2023-01-25T05:25:48;101391.13;;;10.11;51.02
26859;BME280;14429;48.346;16.338;2023-01-25T05:28:14;101395.72;;;10.29;53.36
26859;BME280;14429;48.346;16.338;2023-01-25T05:30:39;101389.28;;;10.13;53.18
26859;BME280;14429;48.346;16.338;2023-01-25T05:33:06;101397.16;;;9.71;54.21
26859;BME280;14429;48.346;16.338;2023-01-25T05:35:31;101401.91;;;9.63;54.33
26859;BME280;14429;48.346;16.338;2023-01-25T05:37:57;101404.66;;;9.83;54.65
26859;BME280;14429;48.346;16.338;2023-01-25T05:40:23;101404.03;;;10.43;53.90
26859;BME280;14429;48.346;16.338;2023-01-25T05:42:52;101412.81;;;10.02;51.76
26859;BME280;14429;48.346;16.338;2023-01-25T05:45:18;101408.13;;;10.30;52.82
26859;BME280;14429;48.346;16.338;2023-01-25T05:47:43;101409.16;;;10.26;53.14
26859;BME280;14429;48.346;16.338;2023-01-25T05:50:10;101410.47;;;10.58;52.33
26859;BME280;14429;48.346;16.338;2023-01-25T05:52:36;101398.31;;;10.51;52.15
26859;BME280;14429;48.346;16.338;2023-01-25T05:55:01;101409.69;;;9.92;51.33
26859;BME280;14429;48.346;16.338;2023-01-25T05:57:26;101408.97;;;10.09;54.03
26859;BME280;14429;48.346;16.338;2023-01-25T05:59:52;101410.25;;;9.99;52.42
26859;BME280;14429;48.346;16.338;2023-01-25T06:02:17;101405.63;;;10.25;53.64
26859;BME280;14429;48.346;16.338;2023-01-25T06:04:43;101403.75;;;10.27;54.17
26859;BME280;14429;48.346;16.338;2023-01-25T06:07:09;101406.72;;;10.20;54.28
26859;BME280;14429;48.346;16.338;2023-01-25T06:09:35;101409.25;;;10.24;54.10
26859;BME280;14429;48.346;16.338;2023-01-25T06:12:00;101410.16;;;10.45;53.22
26859;BME280;14429;48.346;16.338;2023-01-25T06:14:26;101408.50;;;10.21;53.48
26859;BME280;14429;48.346;16.338;2023-01-25T06:16:51;101399.19;;;10.52;53.07
26859;BME280;14429;48.346;16.338;2023-01-25T06:19:17;101411.53;;;10.54;52.41
26859;BME280;14429;48.346;16.338;2023-01-25T06:21:42;101406.47;;;10.68;52.16
26859;BME280;14429;48.346;16.338;2023-01-25T06:24:09;101405.44;;;10.92;51.24
26859;BME280;14429;48.346;16.338;2023-01-25T06:26:34;101413.28;;;10.75;50.97
26859;BME280;14429;48.346;16.338;2023-01-25T06:29:00;101409.13;;;10.68;51.95
26859;BME280;14429;48.346;16.338;2023-01-25T06:31:25;101412.22;;;10.17;52.96
26859;BME280;14429;48.346;16.338;2023-01-25T06:33:51;101401.69;;;10.35;53.58
26859;BME280;14429;48.346;16.338;2023-01-25T06:36:18;101403.28;;;10.39;53.62
26859;BME280;14429;48.346;16.338;2023-01-25T06:38:47;101405.38;;;10.10;53.15
26859;BME280;14429;48.346;16.338;2023-01-25T06:41:14;101388.91;;;10.22;51.52
26859;BME280;14429;48.346;16.338;2023-01-25T06:43:39;101388.63;;;10.49;52.84
26859;BME280;14429;48.346;16.338;2023-01-25T06:46:07;101382.34;;;10.71;52.14
26859;BME280;14429;48.346;16.338;2023-01-25T06:48:33;101387.56;;;10.94;51.33
26859;BME280;14429;48.346;16.338;2023-01-25T06:51:00;101387.31;;;11.00;50.93
26859;BME280;14429;48.346;16.338;2023-01-25T06:53:28;101386.28;;;11.02;50.70
26859;BME280;14429;48.346;16.338;2023-01-25T06:55:57;101384.03;;;10.93;51.38
26859;BME280;14429;48.346;16.338;2023-01-25T06:58:24;101385.91;;;10.91;51.75
26859;BME280;14429;48.346;16.338;2023-01-25T07:00:50;101375.41;;;10.87;51.75
26859;BME280;14429;48.346;16.338;2023-01-25T07:03:15;101381.03;;;10.81;52.10
26859;BME280;14429;48.346;16.338;2023-01-25T07:05:40;101387.78;;;10.68;52.43
26859;BME280;14429;48.346;16.338;2023-01-25T07:08:06;101379.94;;;10.65;52.99
26859;BME280;14429;48.346;16.338;2023-01-25T07:10:31;101384.47;;;10.83;52.72
26859;BME280;14429;48.346;16.338;2023-01-25T07:12:57;101392.63;;;10.80;52.51
26859;BME280;14429;48.346;16.338;2023-01-25T07:15:23;101381.69;;;10.66;52.58
26859;BME280;14429;48.346;16.338;2023-01-25T07:17:49;101387.06;;;10.24;52.13
26859;BME280;14429;48.346;16.338;2023-01-25T07:20:15;101395.31;;;9.73;52.48
26859;BME280;14429;48.346;16.338;2023-01-25T07:22:40;101400.69;;;9.02;54.00
26859;BME280;14429;48.346;16.338;2023-01-25T07:25:06;101398.31;;;8.69;57.13
26859;BME280;14429;48.346;16.338;2023-01-25T07:27:32;101396.91;;;8.84;56.67
26859;BME280;14429;48.346;16.338;2023-01-25T07:29:57;101398.50;;;8.63;56.90
26859;BME280;14429;48.346;16.338;2023-01-25T07:32:24;101403.63;;;8.44;57.28
26859;BME280;14429;48.346;16.338;2023-01-25T07:34:50;101404.81;;;8.61;57.84
26859;BME280;14429;48.346;16.338;2023-01-25T07:37:15;101404.41;;;8.73;56.76
26859;BME280;14429;48.346;16.338;2023-01-25T07:39:41;101405.88;;;9.29;57.22
26859;BME280;14429;48.346;16.338;2023-01-25T07:42:06;101410.22;;;9.08;55.85
26859;BME280;14429;48.346;16.338;2023-01-25T07:44:31;101399.34;;;8.89;56.93
26859;BME280;14429;48.346;16.338;2023-01-25T07:46:57;101399.78;;;8.27;57.25
26859;BME280;14429;48.346;16.338;2023-01-25T07:49:24;101400.34;;;9.35;56.47
26859;BME280;14429;48.346;16.338;2023-01-25T07:51:49;101397.41;;;9.42;56.00
26859;BME280;14429;48.346;16.338;2023-01-25T07:54:14;101402.50;;;9.94;54.23
26859;BME280;14429;48.346;16.338;2023-01-25T07:56:40;101394.84;;;10.07;53.46
26859;BME280;14429;48.346;16.338;2023-01-25T07:59:05;101388.81;;;9.80;53.15
26859;BME280;14429;48.346;16.338;2023-01-25T08:01:31;101392.28;;;9.82;53.75
26859;BME280;14429;48.346;16.338;2023-01-25T08:03:57;101390.09;;;9.93;54.24
26859;BME280;14429;48.346;16.338;2023-01-25T08:06:25;101386.28;;;9.77;54.04
26859;BME280;14429;48.346;16.338;2023-01-25T08:08:50;101382.19;;;9.91;54.23
26859;BME280;14429;48.346;16.338;2023-01-25T08:11:17;101377.47;;;9.30;54.18
26859;BME280;14429;48.346;16.338;2023-01-25T08:13:44;101375.44;;;9.36;53.98
26859;BME280;14429;48.346;16.338;2023-01-25T08:16:09;101382.47;;;9.61;55.59
26859;BME280;14429;48.346;16.338;2023-01-25T08:18:34;101378.16;;;9.80;55.44
26859;BME280;14429;48.346;16.338;2023-01-25T08:21:00;101375.00;;;10.14;54.45
26859;BME280;14429;48.346;16.338;2023-01-25T08:23:26;101378.78;;;9.88;53.92
26859;BME280;14429;48.346;16.338;2023-01-25T08:25:52;101375.13;;;10.11;53.74
26859;BME280;14429;48.346;16.338;2023-01-25T08:28:18;101392.97;;;8.95;54.26
26859;BME280;14429;48.346;16.338;2023-01-25T08:30:43;101379.22;;;9.76;53.70
26859;BME280;14429;48.346;16.338;2023-01-25T08:33:09;101380.91;;;9.09;52.80
26859;BME280;14429;48.346;16.338;2023-01-25T08:35:34;101381.94;;;8.56;55.24
26859;BME280;14429;48.346;16.338;2023-01-25T08:38:00;101373.66;;;8.90;56.11
26859;BME280;14429;48.346;16.338;2023-01-25T08:40:26;101369.94;;;9.18;52.70
26859;BME280;14429;48.346;16.338;2023-01-25T08:42:52;101371.69;;;9.64;54.80
26859;BME280;14429;48.346;16.338;2023-01-25T08:45:17;101364.72;;;9.83;54.90
26859;BME280;14429;48.346;16.338;2023-01-25T08:47:43;101359.75;;;9.96;54.84
26859;BME280;14429;48.346;16.338;2023-01-25T08:50:09;101370.06;;;10.05;54.74
26859;BME280;14429;48.346;16.338;2023-01-25T08:52:35;101368.78;;;10.35;53.99
26859;BME280;14429;48.346;16.338;2023-01-25T08:55:00;101354.28;;;10.42;53.15
26859;BME280;14429;48.346;16.338;2023-01-25T08:57:27;101363.78;;;10.06;52.93
26859;BME280;14429;48.346;16.338;2023-01-25T08:59:52;101356.53;;;9.89;53.07
26859;BME280;14429;48.346;16.338;2023-01-25T09:02:18;101360.69;;;9.96;52.93
26859;BME280;14429;48.346;16.338;2023-01-25T09:04:43;101366.16;;;10.14;52.93
26859;BME280;14429;48.346;16.338;2023-01-25T09:07:09;101362.25;;;8.87;54.38
26859;BME280;14429;48.346;16.338;2023-01-25T09:09:34;101362.78;;;9.20;54.77
26859;BME280;14429;48.346;16.338;2023-01-25T09:12:00;101364.44;;;9.45;55.14
26859;BME280;14429;48.346;16.338;2023-01-25T09:14:26;101369.00;;;9.41;54.50
26859;BME280;14429;48.346;16.338;2023-01-25T09:16:52;101375.75;;;8.55;57.06
26859;BME280;14429;48.346;16.338;2023-01-25T09:19:17;101369.28;;;8.12;57.19
26859;BME280;14429;48.346;16.338;2023-01-25T09:21:43;101363.03;;;8.88;57.17
26859;BME280;14429;48.346;16.338;2023-01-25T09:24:08;101358.09;;;9.49;56.67
26859;BME280;14429;48.346;16.338;2023-01-25T09:26:36;101352.59;;;9.76;55.71
26859;BME280;14429;48.346;16.338;2023-01-25T09:29:02;101345.75;;;9.92;55.02
26859;BME280;14429;48.346;16.338;2023-01-25T09:31:29;101350.53;;;9.82;53.60
26859;BME280;14429;48.346;16.338;2023-01-25T09:33:54;101340.91;;;10.22;53.37
26859;BME280;14429;48.346;16.338;2023-01-25T09:36:19;101331.75;;;10.29;52.00
26859;BME280;14429;48.346;16.338;2023-01-25T09:38:45;101345.75;;;10.34;52.50
26859;BME280;14429;48.346;16.338;2023-01-25T09:41:23;101333.47;;;10.30;52.52
26859;BME280;14429;48.346;16.338;2023-01-25T09:44:02;101337.81;;;9.90;52.95
26859;BME280;14429;48.346;16.338;2023-01-25T09:46:39;101333.50;;;9.88;52.48
26859;BME280;14429;48.346;16.338;2023-01-25T09:49:15;101340.72;;;9.62;53.38
26859;BME280;14429;48.346;16.338;2023-01-25T09:52:04;101333.09;;;9.30;53.38
26859;BME280;14429;48.346;16.338;2023-01-25T09:54:38;101332.81;;;8.91;55.53
26859;BME280;14429;48.346;16.338;2023-01-25T09:57:09;101328.63;;;9.31;55.80
26859;BME280;14429;48.346;16.338;2023-01-25T09:59:39;101328.22;;;9.41;56.28
26859;BME280;14429;48.346;16.338;2023-01-25T10:02:18;101326.56;;;9.39;54.48
26859;BME280;14429;48.346;16.338;2023-01-25T10:04:51;101320.13;;;8.99;54.66
26859;BME280;14429;48.346;16.338;2023-01-25T10:07:21;101308.47;;;9.92;54.20
26859;BME280;14429;48.346;16.338;2023-01-25T10:09:56;101292.94;;;10.01;53.27
26859;BME280;14429;48.346;16.338;2023-01-25T10:12:24;101285.69;;;9.62;53.25
26859;BME280;14429;48.346;16.338;2023-01-25T10:14:51;101290.19;;;9.81;53.50
26859;BME280;14429;48.346;16.338;2023-01-25T10:17:26;101284.53;;;10.11;53.51
26859;BME280;14429;48.346;16.338;2023-01-25T10:20:02;101267.53;;;10.54;52.11
26859;BME280;14429;48.346;16.338;2023-01-25T10:22:35;101273.97;;;10.08;51.09
26859;BME280;14429;48.346;16.338;2023-01-25T10:25:23;101269.28;;;9.94;53.18
26859;BME280;14429;48.346;16.338;2023-01-25T10:28:12;101271.09;;;9.49;54.65
26859;BME280;14429;48.346;16.338;2023-01-25T10:30:45;101269.34;;;10.13;54.50
26859;BME280;14429;48.346;16.338;2023-01-25T10:33:17;101271.50;;;9.62;52.32
26859;BME280;14429;48.346;16.338;2023-01-25T10:35:45;101272.63;;;9.11;55.92
26859;BME280;14429;48.346;16.338;2023-01-25T10:38:17;101279.00;;;9.30;56.13
26859;BME280;14429;48.346;16.338;2023-01-25T10:40:48;101275.53;;;8.83;54.31
26859;BME280;14429;48.346;16.338;2023-01-25T10:43:17;101274.53;;;8.37;56.02
26859;BME280;14429;48.346;16.338;2023-01-25T10:45:44;101270.22;;;8.09;58.91
26859;BME280;14429;48.346;16.338;2023-01-25T10:48:14;101269.03;;;7.65;58.32
26859;BME280;14429;48.346;16.338;2023-01-25T10:50:49;101259.00;;;7.47;59.36
26859;BME280;14429;48.346;16.338;2023-01-25T10:53:24;101260.03;;;7.15;60.09
26859;BME280;14429;48.346;16.338;2023-01-25T10:56:12;101258.25;;;6.87;61.04
26859;BME280;14429;48.346;16.338;2023-01-25T10:58:42;101261.81;;;6.56;62.11
26859;BME280;14429;48.346;16.338;2023-01-25T11:01:11;101256.84;;;6.44;62.80
26859;BME280;14429;48.346;16.338;2023-01-25T11:03:40;101235.16;;;6.62;63.17
26859;BME280;14429;48.346;16.338;2023-01-25T11:06:07;101231.97;;;7.62;61.92
26859;BME280;14429;48.346;16.338;2023-01-25T11:08:35;101227.28;;;7.70;59.58
26859;BME280;14429;48.346;16.338;2023-01-25T11:11:16;101223.00;;;7.66;59.57
26859;BME280;14429;48.346;16.338;2023-01-25T11:13:47;101234.94;;;8.30;59.13
26859;BME280;14429;48.346;16.338;2023-01-25T11:16:23;101226.50;;;7.68;60.11
26859;BME280;14429;48.346;16.338;2023-01-25T11:18:52;101220.78;;;8.04;59.93
26859;BME280;14429;48.346;16.338;2023-01-25T11:21:22;101214.25;;;8.39;58.90
26859;BME280;14429;48.346;16.338;2023-01-25T11:24:03;101214.91;;;9.36;56.49
26859;BME280;14429;48.346;16.338;2023-01-25T11:26:39;101196.91;;;9.83;55.02
26859;BME280;14429;48.346;16.338;2023-01-25T11:29:10;101200.66;;;9.37;54.01
26859;BME280;14429;48.346;16.338;2023-01-25T11:31:37;101192.28;;;9.45;55.38
26859;BME280;14429;48.346;16.338;2023-01-25T11:34:07;101182.44;;;9.05;56.77
26859;BME280;14429;48.346;16.338;2023-01-25T11:36:41;101173.16;;;9.15;55.92
26859;BME280;14429;48.346;16.338;2023-01-25T11:39:20;101170.19;;;9.01;54.91
26859;BME280;14429;48.346;16.338;2023-01-25T11:42:05;101168.69;;;8.94;55.67
26859;BME280;14429;48.346;16.338;2023-01-25T11:44:47;101177.56;;;8.71;56.89
26859;BME280;14429;48.346;16.338;2023-01-25T11:47:29;101161.66;;;9.14;56.21
26859;BME280;14429;48.346;16.338;2023-01-25T11:50:06;101156.66;;;9.90;54.14
26859;BME280;14429;48.346;16.338;2023-01-25T11:52:48;101154.84;;;9.50;54.02
26859;BME280;14429;48.346;16.338;2023-01-25T11:55:24;101153.81;;;8.89;55.03
26859;BME280;14429;48.346;16.338;2023-01-25T11:58:03;101144.25;;;9.06;55.25
26859;BME280;14429;48.346;16.338;2023-01-25T12:00:40;101147.44;;;8.49;55.64
26859;BME280;14429;48.346;16.338;2023-01-25T12:06:03;101120.22;;;8.19;58.09
26859;BME280;14429;48.346;16.338;2023-01-25T12:08:55;101129.13;;;8.42;57.90
26859;BME280;14429;48.346;16.338;2023-01-25T12:11:35;101123.16;;;7.63;57.76
26859;BME280;14429;48.346;16.338;2023-01-25T12:14:11;101130.75;;;7.23;59.92
26859;BME280;14429;48.346;16.338;2023-01-25T12:16:55;101132.22;;;7.31;60.06
26859;BME280;14429;48.346;16.338;2023-01-25T12:19:37;101124.97;;;7.61;59.44
26859;BME280;14429;48.346;16.338;2023-01-25T12:22:20;101119.47;;;6.89;60.26
26859;BME280;14429;48.346;16.338;2023-01-25T12:24:55;101097.03;;;8.00;59.66
26859;BME280;14429;48.346;16.338;2023-01-25T12:27:31;101097.59;;;8.09;57.21
26859;BME280;14429;48.346;16.338;2023-01-25T12:30:03;101095.72;;;7.63;58.67
26859;BME280;14429;48.346;16.338;2023-01-25T12:32:38;101086.53;;;7.73;58.65
26859;BME280;14429;48.346;16.338;2023-01-25T12:35:21;101097.44;;;8.13;59.32
26859;BME280;14429;48.346;16.338;2023-01-25T12:37:54;101087.75;;;8.58;58.26
26859;BME280;14429;48.346;16.338;2023-01-25T12:40:31;101087.88;;;8.76;57.64
26859;BME280;14429;48.346;16.338;2023-01-25T12:42:57;101088.66;;;9.41;56.90
26859;BME280;14429;48.346;16.338;2023-01-25T12:45:24;101090.00;;;8.89;57.51
26859;BME280;14429;48.346;16.338;2023-01-25T12:47:54;101083.56;;;8.94;57.31
26859;BME280;14429;48.346;16.338;2023-01-25T12:50:26;101078.31;;;9.14;56.87
26859;BME280;14429;48.346;16.338;2023-01-25T12:52:57;101072.34;;;9.50;55.69